Belgrade, MT (59714)

8:22 PM MDT on September 24, 2016 (GMT -0600)
Belgrade Gardens | | Change Station

Elev 4386 ft 45.80 °N, 111.21 °W | Updated 16 seconds ago

Mostly Cloudy
Mostly Cloudy
50.0 °F
Feels Like 49 °F
N
3.7
Wind Variable Wind from WSW
Gusts 7.3 mph

Today
High -- | Low -- °F
--% Chance of Precip.
Yesterday
High -- | Low -- °F
Precip. -- in
Pressure 30.28 in
Visibility 8.0 miles
Clouds Mostly Cloudy 9000 ft
Windchill 49 °F
Dew Point 34 °F
Humidity 53%
Rainfall 0.00 in
Snow Depth Not available.
7:14 AM 7:17 PM
Waning Crescent, 32% visible
METAR KBZN 250156Z 29010KT 8SM BKN090 11/00 A3029 RMK AO2 SLP253 T01110000
Pressure 30.28 in
Visibility 8.0 miles
Clouds Mostly Cloudy 9000 ft
Windchill 49 °F
Dew Point 34 °F
Humidity 53%
Rainfall 0.00 in
Snow Depth Not available.
7:14 AM 7:17 PM
Waning Crescent, 32% visible
METAR KBZN 250156Z 29010KT 8SM BKN090 11/00 A3029 RMK AO2 SLP253 T01110000

10-Day Weather Forecast

Almanac

Astronomy

Sep. 24, 2016 Rise Set
Actual Time
Civil Twilight
Nautical Twilight
Astronomical Twilight
Moon
Length of Visible Light
Length of Day
Tomorrow will be .
, % of the Moon is Illuminated

Today's Extremes

State Highs State Lows

Community

WunderPhotos

Upload Photos

1,941,527 photos uploaded!

WunderBlog® & News

Nearby

Air Quality

  Air Quality AQ Index Pollutant
Not available.

Snow Depth

Station Depth Elevation

Earthquake Activity

City Distance Mag. Time & Date
Minimum magnitude displayed is 2.5.

Coastal Water Temperatures

Place Temperature

Stations

Nearby Weather Stations

Station Location Temp. Windchill Dew Point Humidity Wind Precip. Elev Updated Type
                   

Watches & Warnings

There are currently no watches in effect.